createdAt,value
2023-05-03T00:01:26.695Z,101193.48
2023-05-03T00:03:56.510Z,101181.32
2023-05-03T00:06:26.230Z,101189.14
2023-05-03T00:08:55.064Z,101184.78
2023-05-03T00:11:23.918Z,101187.39
2023-05-03T00:13:53.113Z,101181.30
2023-05-03T00:16:21.982Z,101183.91
2023-05-03T00:18:57.106Z,101184.77
2023-05-03T00:21:26.470Z,101187.38
2023-05-03T00:23:55.871Z,101189.98
2023-05-03T00:26:26.097Z,101186.50
2023-05-03T00:28:54.936Z,101193.46
2023-05-03T00:31:24.090Z,101193.44
2023-05-03T00:33:54.974Z,101191.69
2023-05-03T00:36:23.692Z,101181.27
2023-05-03T00:38:52.886Z,101188.20
2023-05-03T00:41:23.886Z,101178.67
2023-05-03T00:43:53.124Z,101169.11
2023-05-03T00:46:22.223Z,101176.06
2023-05-03T00:48:56.528Z,101179.54
2023-05-03T00:51:28.223Z,101175.16
2023-05-03T00:53:57.568Z,101180.38
2023-05-03T00:56:32.973Z,101184.70
2023-05-03T00:59:08.209Z,101194.25
2023-05-03T01:01:37.083Z,101189.89
2023-05-03T01:04:07.626Z,101198.55
2023-05-03T01:06:44.535Z,101202.85
2023-05-03T01:09:18.464Z,101203.66
2023-05-03T01:11:53.724Z,101199.27
2023-05-03T01:14:32.790Z,101209.63
2023-05-03T01:17:08.905Z,101212.17
2023-05-03T01:19:44.277Z,101214.72
2023-05-03T01:22:22.311Z,101216.41
2023-05-03T01:25:00.094Z,101218.08
2023-05-03T01:27:30.487Z,101218.88
2023-05-03T01:29:59.431Z,101229.24
2023-05-03T01:32:36.594Z,101229.17
2023-05-03T01:35:15.908Z,101230.88
2023-05-03T01:37:45.317Z,101236.08
2023-05-03T01:40:16.336Z,101236.90
2023-05-03T01:42:46.152Z,101235.15
2023-05-03T01:45:17.760Z,101235.97
2023-05-03T01:47:46.722Z,101243.73
2023-05-03T01:50:16.809Z,101248.03
2023-05-03T01:52:46.048Z,101248.88
2023-05-03T01:55:18.340Z,101243.64
2023-05-03T01:57:47.540Z,101242.78
2023-05-03T02:00:16.774Z,101238.40
2023-05-03T02:02:46.271Z,101233.19
2023-05-03T02:05:15.437Z,101240.09
2023-05-03T02:07:44.698Z,101237.50
2023-05-03T02:10:14.610Z,101233.16
2023-05-03T02:12:44.572Z,101237.50
2023-05-03T02:15:13.946Z,101234.90
2023-05-03T02:17:45.103Z,101234.01
2023-05-03T02:20:14.092Z,101230.55
2023-05-03T02:22:43.217Z,101228.80
2023-05-03T02:25:12.166Z,101231.41
2023-05-03T02:27:41.338Z,101234.90
2023-05-03T02:30:11.772Z,101249.60
2023-05-03T02:32:42.665Z,101255.66
2023-05-03T02:35:12.507Z,101250.45
2023-05-03T02:37:41.299Z,101245.25
2023-05-03T02:40:12.834Z,101245.25
2023-05-03T02:42:42.765Z,101250.45
2023-05-03T02:45:12.610Z,101252.16
2023-05-03T02:47:43.762Z,101255.61
2023-05-03T02:50:13.553Z,101259.06
2023-05-03T02:52:42.805Z,101254.75
2023-05-03T02:55:12.208Z,101247.81
2023-05-03T02:57:42.402Z,101247.80
2023-05-03T03:00:15.251Z,101247.77
2023-05-03T03:02:44.676Z,101247.76
2023-05-03T03:05:14.224Z,101241.67
2023-05-03T03:07:44.193Z,101253.77
2023-05-03T03:10:12.913Z,101245.95
2023-05-03T03:12:42.176Z,101254.61
2023-05-03T03:15:13.210Z,101265.81
2023-05-03T03:17:42.406Z,101271.85
2023-05-03T03:20:12.417Z,101272.66
2023-05-03T03:22:45.003Z,101264.01
2023-05-03T03:25:15.485Z,101263.16
2023-05-03T03:27:44.966Z,101263.11
2023-05-03T03:30:15.347Z,101261.36
2023-05-03T03:32:51.452Z,101263.11
2023-05-03T03:35:22.652Z,101272.65
2023-05-03T03:37:51.514Z,101273.50
2023-05-03T03:40:22.363Z,101289.99
2023-05-03T03:42:51.874Z,101278.75
2023-05-03T03:45:20.967Z,101288.30
2023-05-03T03:47:51.576Z,101296.09
2023-05-03T03:50:24.443Z,101291.80
2023-05-03T03:52:53.676Z,101307.44
2023-05-03T03:55:23.814Z,101309.19
2023-05-03T03:57:54.296Z,101306.59
2023-05-03T04:00:25.399Z,101310.95
2023-05-03T04:02:58.521Z,101319.64
2023-05-03T04:05:28.372Z,101317.94
2023-05-03T04:07:57.268Z,101330.09
2023-05-03T04:10:27.631Z,101330.99
2023-05-03T04:12:56.823Z,101327.59
2023-05-03T04:15:26.494Z,101330.25
2023-05-03T04:17:58.118Z,101332.89
2023-05-03T04:20:28.502Z,101334.64
2023-05-03T04:22:57.531Z,101323.44
2023-05-03T04:25:31.640Z,101319.14
2023-05-03T04:28:06.355Z,101320.98
2023-05-03T04:30:36.103Z,101320.12
2023-05-03T04:33:05.187Z,101320.22
2023-05-03T04:35:35.990Z,101335.95
2023-05-03T04:38:09.615Z,101338.02
2023-05-03T04:40:38.544Z,101336.86
2023-05-03T04:43:11.117Z,101342.45
2023-05-03T04:45:42.722Z,101344.17
2023-05-03T04:48:17.547Z,101339.63
2023-05-03T04:50:46.607Z,101338.87
2023-05-03T04:53:18.461Z,101344.52
2023-05-03T04:55:54.262Z,101343.39
2023-05-03T04:58:23.647Z,101351.23
2023-05-03T05:00:54.002Z,101349.11
2023-05-03T05:03:30.955Z,101357.47
2023-05-03T05:06:01.212Z,101361.39
2023-05-03T05:08:30.863Z,101357.75
2023-05-03T05:11:03.402Z,101365.02
2023-05-03T05:13:32.997Z,101369.84
2023-05-03T05:16:02.118Z,101372.61
2023-05-03T05:18:34.429Z,101371.73
2023-05-03T05:21:05.676Z,101375.14
2023-05-03T05:23:35.890Z,101375.66
2023-05-03T05:26:05.129Z,101368.22
2023-05-03T05:28:34.859Z,101372.01
2023-05-03T05:31:03.943Z,101377.05
2023-05-03T05:33:33.364Z,101366.98
2023-05-03T05:36:03.072Z,101372.84
2023-05-03T05:38:33.321Z,101371.41
2023-05-03T05:41:04.584Z,101365.63
2023-05-03T05:43:34.901Z,101374.09
2023-05-03T05:46:04.537Z,101373.79
2023-05-03T05:48:34.662Z,101374.47
2023-05-03T05:51:05.839Z,101384.20
2023-05-03T05:53:35.086Z,101384.45
2023-05-03T05:56:05.864Z,101393.80
2023-05-03T05:58:36.989Z,101396.92
2023-05-03T06:01:10.413Z,101399.08
2023-05-03T06:03:39.016Z,101401.49
2023-05-03T06:06:09.816Z,101407.92
2023-05-03T06:08:39.170Z,101409.34
2023-05-03T06:11:08.290Z,101407.69
2023-05-03T06:13:40.444Z,101415.48
2023-05-03T06:16:12.246Z,101420.55
2023-05-03T06:18:44.780Z,101419.94
2023-05-03T06:21:13.768Z,101427.02
2023-05-03T06:23:45.226Z,101414.92
2023-05-03T06:26:17.143Z,101419.45
2023-05-03T06:28:47.422Z,101424.92
2023-05-03T06:31:16.945Z,101426.84
2023-05-03T06:33:47.279Z,101428.74
2023-05-03T06:36:16.593Z,101428.02
2023-05-03T06:38:45.535Z,101422.77
2023-05-03T06:41:14.326Z,101423.37
2023-05-03T06:43:43.628Z,101425.50
2023-05-03T06:46:14.441Z,101418.95
2023-05-03T06:48:43.789Z,101419.72
2023-05-03T06:51:13.009Z,101427.69
2023-05-03T06:53:41.899Z,101434.74
2023-05-03T06:56:12.043Z,101435.03
2023-05-03T06:58:40.898Z,101433.45
2023-05-03T07:01:09.757Z,101433.37
2023-05-03T07:03:41.626Z,101438.45
2023-05-03T07:06:13.613Z,101441.94
2023-05-03T07:08:42.990Z,101441.67
2023-05-03T07:11:13.108Z,101439.84
2023-05-03T07:13:42.452Z,101431.27
2023-05-03T07:16:11.361Z,101446.19
2023-05-03T07:18:40.458Z,101436.63
2023-05-03T07:21:09.580Z,101441.99
2023-05-03T07:23:38.860Z,101443.77
2023-05-03T07:26:08.346Z,101443.03
2023-05-03T07:28:37.284Z,101445.36
2023-05-03T07:31:06.515Z,101437.57
2023-05-03T07:33:36.908Z,101445.25
2023-05-03T07:36:06.722Z,101440.57
2023-05-03T07:38:35.630Z,101448.91
2023-05-03T07:41:04.552Z,101440.23
2023-05-03T07:43:33.540Z,101444.77
2023-05-03T07:46:02.870Z,101441.30
2023-05-03T07:48:32.147Z,101448.13
2023-05-03T07:51:03.650Z,101433.03
2023-05-03T07:53:35.144Z,101438.53
2023-05-03T07:56:04.571Z,101440.73
2023-05-03T07:58:40.016Z,101444.48
2023-05-03T08:01:10.919Z,101442.59
2023-05-03T08:03:40.678Z,101444.15
2023-05-03T08:06:10.232Z,101435.34
2023-05-03T08:08:39.420Z,101444.74
2023-05-03T08:11:08.379Z,101442.05
2023-05-03T08:13:37.232Z,101448.87
2023-05-03T08:16:07.099Z,101443.58
2023-05-03T08:18:36.122Z,101446.34
2023-05-03T08:21:08.410Z,101439.48
2023-05-03T08:23:37.324Z,101444.18
2023-05-03T08:26:08.878Z,101446.19
2023-05-03T08:28:37.961Z,101445.36
2023-05-03T08:31:09.843Z,101441.80
2023-05-03T08:33:42.301Z,101443.27
2023-05-03T08:36:11.487Z,101434.23
2023-05-03T08:38:41.246Z,101445.45
2023-05-03T08:41:22.118Z,101442.90
2023-05-03T08:43:54.174Z,101443.27
2023-05-03T08:46:26.708Z,101451.52
2023-05-03T08:48:56.612Z,101450.70
2023-05-03T08:51:27.313Z,101446.84
2023-05-03T08:53:57.017Z,101452.39
2023-05-03T08:56:30.422Z,101445.88
2023-05-03T08:59:07.273Z,101438.48
2023-05-03T09:01:38.765Z,101442.24
2023-05-03T09:04:10.198Z,101439.41
2023-05-03T09:06:39.435Z,101433.95
2023-05-03T09:09:09.191Z,101435.89
2023-05-03T09:11:40.009Z,101438.88
2023-05-03T09:14:14.291Z,101437.03
2023-05-03T09:16:45.170Z,101444.84
2023-05-03T09:19:16.250Z,101449.01
2023-05-03T09:21:46.930Z,101443.63
2023-05-03T09:24:18.800Z,101450.08
2023-05-03T09:26:49.688Z,101446.89
2023-05-03T09:29:33.776Z,101449.34
2023-05-03T09:32:05.060Z,101451.94
2023-05-03T09:34:35.117Z,101456.54
2023-05-03T09:37:05.063Z,101451.93
2023-05-03T09:39:36.310Z,101458.81
2023-05-03T09:42:16.131Z,101457.80
2023-05-03T09:44:50.852Z,101455.33
2023-05-03T09:47:24.056Z,101450.39
2023-05-03T09:49:54.057Z,101452.32
2023-05-03T09:52:23.077Z,101448.89
2023-05-03T09:54:53.854Z,101458.00
2023-05-03T09:57:23.382Z,101456.09
2023-05-03T09:59:52.866Z,101452.73
2023-05-03T10:02:22.444Z,101461.42
2023-05-03T10:04:56.427Z,101460.53
2023-05-03T10:07:29.641Z,101459.80
2023-05-03T10:09:58.849Z,101465.14
2023-05-03T10:12:35.880Z,101458.24
2023-05-03T10:15:08.822Z,101459.17
2023-05-03T10:17:47.330Z,101465.38
2023-05-03T10:20:26.785Z,101455.86
2023-05-03T10:23:14.918Z,101448.16
2023-05-03T10:26:14.366Z,101451.72
2023-05-03T10:28:43.725Z,101449.79
2023-05-03T10:31:46.466Z,101448.39
2023-05-03T10:34:23.203Z,101451.45
2023-05-03T10:36:53.800Z,101449.39
2023-05-03T10:39:24.289Z,101448.95
2023-05-03T10:42:03.128Z,101451.02
2023-05-03T10:44:40.647Z,101452.70
2023-05-03T10:47:15.045Z,101460.61
2023-05-03T10:49:44.427Z,101459.52
2023-05-03T10:52:48.024Z,101460.80
2023-05-03T10:55:18.766Z,101455.41
2023-05-03T10:57:50.852Z,101453.55
2023-05-03T11:00:28.987Z,101455.55
2023-05-03T11:03:13.356Z,101454.92
2023-05-03T11:05:43.043Z,101452.78
2023-05-03T11:08:16.660Z,101449.14
2023-05-03T11:10:46.019Z,101451.13
2023-05-03T11:13:15.548Z,101454.59
2023-05-03T11:15:47.015Z,101459.18
2023-05-03T11:18:18.575Z,101457.11
2023-05-03T11:20:47.989Z,101463.09
2023-05-03T11:23:17.088Z,101456.92
2023-05-03T11:25:46.016Z,101455.50
2023-05-03T11:28:16.581Z,101457.91
2023-05-03T11:30:47.650Z,101455.83
2023-05-03T11:33:17.365Z,101463.05
2023-05-03T11:35:46.868Z,101462.45
2023-05-03T11:38:16.169Z,101463.09
2023-05-03T11:40:46.417Z,101458.61
2023-05-03T11:43:15.434Z,101464.30
2023-05-03T11:45:47.064Z,101467.80
2023-05-03T11:48:17.690Z,101474.75
2023-05-03T11:50:48.429Z,101473.86
2023-05-03T11:53:18.608Z,101469.63
2023-05-03T11:55:50.196Z,101463.61
2023-05-03T11:58:23.272Z,101465.55
2023-05-03T12:00:58.078Z,101460.64
2023-05-03T12:03:31.813Z,101456.73
2023-05-03T12:06:06.480Z,101454.84
2023-05-03T12:08:37.929Z,101458.84
2023-05-03T12:11:09.894Z,101461.47
2023-05-03T12:13:40.755Z,101464.32
2023-05-03T12:16:14.293Z,101463.78
2023-05-03T12:18:50.115Z,101468.38
2023-05-03T12:23:55.868Z,101450.92
2023-05-03T12:26:26.949Z,101451.03
2023-05-03T12:28:57.227Z,101446.23
2023-05-03T12:31:29.194Z,101445.59
2023-05-03T12:36:35.078Z,101449.41
2023-05-03T12:39:09.779Z,101440.00
2023-05-03T12:44:12.091Z,101437.29
2023-05-03T12:46:44.754Z,101439.63
2023-05-03T12:49:15.040Z,101433.95
2023-05-03T12:51:55.432Z,101440.08
2023-05-03T12:54:33.980Z,101437.34
2023-05-03T12:57:08.528Z,101436.05
2023-05-03T12:59:42.559Z,101438.31
2023-05-03T13:04:57.787Z,101430.46
2023-05-03T13:07:37.533Z,101431.53
2023-05-03T13:12:49.294Z,101428.06
2023-05-03T13:15:18.486Z,101427.83
2023-05-03T13:17:48.526Z,101426.71
2023-05-03T13:20:19.787Z,101427.12
2023-05-03T13:22:49.807Z,101419.94
2023-05-03T13:25:18.983Z,101427.36
2023-05-03T13:27:49.723Z,101420.94
2023-05-03T13:30:20.960Z,101429.32
2023-05-03T13:32:50.184Z,101419.19
2023-05-03T13:35:19.717Z,101415.09
2023-05-03T13:37:48.597Z,101422.33
2023-05-03T13:40:18.378Z,101420.73
2023-05-03T13:42:48.140Z,101418.22
2023-05-03T13:45:18.300Z,101410.84
2023-05-03T13:48:10.177Z,101414.36
2023-05-03T13:50:36.431Z,101413.63
2023-05-03T13:53:05.528Z,101414.59
2023-05-03T13:55:35.060Z,101413.85
2023-05-03T13:58:04.451Z,101415.59
2023-05-03T14:00:33.474Z,101412.19
2023-05-03T14:03:02.799Z,101410.55
2023-05-03T14:05:31.946Z,101414.23
2023-05-03T14:08:01.599Z,101412.43
2023-05-03T14:10:35.241Z,101420.17
2023-05-03T14:13:04.676Z,101411.44
2023-05-03T14:15:38.045Z,101411.61
2023-05-03T14:18:07.533Z,101412.73
2023-05-03T14:20:36.953Z,101410.10
2023-05-03T14:23:06.230Z,101411.55
2023-05-03T14:25:35.864Z,101405.16
2023-05-03T14:28:05.143Z,101398.83
2023-05-03T14:30:34.362Z,101403.89
2023-05-03T14:33:03.942Z,101399.33
2023-05-03T14:35:33.038Z,101395.63
2023-05-03T14:38:02.274Z,101402.47
2023-05-03T14:40:31.975Z,101393.47
2023-05-03T14:43:00.891Z,101397.57
2023-05-03T14:45:32.431Z,101396.31
2023-05-03T14:48:02.281Z,101389.05
2023-05-03T14:50:31.923Z,101397.60
2023-05-03T14:53:00.915Z,101390.69
2023-05-03T14:55:30.960Z,101393.33
2023-05-03T14:58:00.005Z,101396.70
2023-05-03T15:00:31.459Z,101400.92
2023-05-03T15:03:00.625Z,101398.23
2023-05-03T15:05:30.798Z,101397.53
2023-05-03T15:08:00.202Z,101397.74
2023-05-03T15:10:30.234Z,101401.52
2023-05-03T15:12:59.678Z,101396.41
2023-05-03T15:15:29.784Z,101394.00
2023-05-03T15:17:58.832Z,101400.34
2023-05-03T15:20:28.147Z,101405.77
2023-05-03T15:22:57.541Z,101405.06
2023-05-03T15:25:27.062Z,101408.74
2023-05-03T15:27:57.386Z,101405.34
2023-05-03T15:30:26.597Z,101401.02
2023-05-03T15:32:56.429Z,101408.09
2023-05-03T15:35:25.830Z,101407.25
2023-05-03T15:37:54.901Z,101408.10
2023-05-03T15:40:26.754Z,101409.06
2023-05-03T15:42:56.979Z,101412.70
2023-05-03T15:45:28.496Z,101409.19
2023-05-03T15:47:57.426Z,101411.85
2023-05-03T15:50:26.539Z,101416.30
2023-05-03T15:52:56.443Z,101406.67
2023-05-03T15:55:26.647Z,101404.05
2023-05-03T15:57:56.773Z,101395.31
2023-05-03T16:00:28.197Z,101405.93
2023-05-03T16:02:58.797Z,101407.75
2023-05-03T16:05:29.444Z,101402.49
2023-05-03T16:07:58.839Z,101402.49
2023-05-03T16:10:31.065Z,101414.81
2023-05-03T16:13:00.266Z,101400.89
2023-05-03T16:15:31.613Z,101405.19
2023-05-03T16:18:01.001Z,101408.67
2023-05-03T16:20:30.839Z,101408.63
2023-05-03T16:22:59.852Z,101410.37
2023-05-03T16:25:30.977Z,101408.63
2023-05-03T16:28:00.230Z,101414.81
2023-05-03T16:30:29.978Z,101409.52
2023-05-03T16:32:59.105Z,101406.93
2023-05-03T16:35:28.863Z,101410.48
2023-05-03T16:37:57.677Z,101408.88
2023-05-03T16:40:26.606Z,101408.13
2023-05-03T16:42:57.659Z,101411.71
2023-05-03T16:45:26.618Z,101410.07
2023-05-03T16:47:56.378Z,101413.65
2023-05-03T16:50:25.925Z,101414.59
2023-05-03T16:52:55.754Z,101424.23
2023-05-03T16:55:24.759Z,101423.41
2023-05-03T16:57:53.684Z,101417.34
2023-05-03T17:00:22.947Z,101414.77
2023-05-03T17:02:52.404Z,101423.56
2023-05-03T17:05:22.289Z,101421.88
2023-05-03T17:07:52.068Z,101428.06
2023-05-03T17:10:21.098Z,101425.50
2023-05-03T17:12:50.478Z,101422.08
2023-05-03T17:15:19.705Z,101427.38
2023-05-03T17:17:48.919Z,101424.80
2023-05-03T17:20:18.334Z,101426.59
2023-05-03T17:22:47.384Z,101431.02
2023-05-03T17:25:16.792Z,101421.48
2023-05-03T17:27:45.832Z,101428.55
2023-05-03T17:30:20.363Z,101429.46
2023-05-03T17:32:51.237Z,101430.41
2023-05-03T17:35:21.514Z,101433.10
2023-05-03T17:37:50.792Z,101435.79
2023-05-03T17:40:19.962Z,101431.45
2023-05-03T17:42:48.948Z,101435.02
2023-05-03T17:45:18.972Z,101435.06
2023-05-03T17:47:48.563Z,101442.97
2023-05-03T17:50:17.644Z,101445.64
2023-05-03T17:52:46.564Z,101454.41
2023-05-03T17:55:17.931Z,101451.83
2023-05-03T17:57:47.592Z,101455.38
2023-05-03T18:00:21.168Z,101447.55
2023-05-03T18:02:49.726Z,101456.33
2023-05-03T18:05:19.505Z,101456.38
2023-05-03T18:07:48.924Z,101463.38
2023-05-03T18:10:18.159Z,101464.31
2023-05-03T18:12:47.186Z,101465.20
2023-05-03T18:15:16.622Z,101467.80
2023-05-03T18:17:46.215Z,101473.94
2023-05-03T18:20:15.910Z,101474.82
2023-05-03T18:22:44.695Z,101472.19
2023-05-03T18:25:14.127Z,101470.46
2023-05-03T18:27:43.656Z,101476.58
2023-05-03T18:30:17.723Z,101480.06
2023-05-03T18:32:47.230Z,101483.52
2023-05-03T18:35:19.562Z,101483.52
2023-05-03T18:37:48.905Z,101475.65
2023-05-03T18:40:19.743Z,101485.20
2023-05-03T18:42:48.973Z,101479.95
2023-05-03T18:45:19.120Z,101484.27
2023-05-03T18:47:51.877Z,101486.83
2023-05-03T18:50:21.945Z,101487.63
2023-05-03T18:52:50.973Z,101487.56
2023-05-03T18:55:20.088Z,101487.49
2023-05-03T18:57:49.437Z,101490.88
2023-05-03T19:00:18.984Z,101497.77
2023-05-03T19:02:48.368Z,101492.43
2023-05-03T19:05:19.684Z,101486.23
2023-05-03T19:07:51.794Z,101490.48
2023-05-03T19:10:21.286Z,101487.73
2023-05-03T19:12:53.415Z,101490.24
2023-05-03T19:15:25.448Z,101491.79
2023-05-03T19:17:57.424Z,101491.69
2023-05-03T19:20:27.388Z,101491.61
2023-05-03T19:22:57.370Z,101495.81
2023-05-03T19:25:26.296Z,101500.91
2023-05-03T19:27:55.426Z,101503.34
2023-05-03T19:30:24.650Z,101506.72
2023-05-03T19:32:53.827Z,101503.95
2023-05-03T19:35:23.202Z,101507.28
2023-05-03T19:37:52.341Z,101507.16
2023-05-03T19:40:22.429Z,101506.20
2023-05-03T19:42:52.044Z,101509.53
2023-05-03T19:45:20.980Z,101514.61
2023-05-03T19:47:50.368Z,101510.19
2023-05-03T19:50:19.624Z,101515.30
2023-05-03T19:52:52.762Z,101506.55
2023-05-03T19:55:21.886Z,101513.34
2023-05-03T19:57:51.046Z,101519.24
2023-05-03T20:00:22.864Z,101517.40
2023-05-03T20:02:55.240Z,101520.72
2023-05-03T20:05:24.505Z,101511.08
2023-05-03T20:07:53.766Z,101512.67
2023-05-03T20:10:23.013Z,101524.66
2023-05-03T20:12:52.573Z,101513.22
2023-05-03T20:15:21.365Z,101512.28
2023-05-03T20:17:52.911Z,101515.65
2023-05-03T20:20:22.347Z,101513.83
2023-05-03T20:22:51.545Z,101511.20
2023-05-03T20:25:21.289Z,101511.14
2023-05-03T20:27:50.504Z,101511.98
2023-05-03T20:30:20.091Z,101514.56
2023-05-03T20:32:49.451Z,101512.80
2023-05-03T20:35:19.629Z,101522.16
2023-05-03T20:37:50.948Z,101523.67
2023-05-03T20:40:20.235Z,101521.81
2023-05-03T20:42:49.742Z,101517.37
2023-05-03T20:45:20.469Z,101519.80
2023-05-03T20:47:49.889Z,101521.39
2023-05-03T20:50:20.772Z,101521.28
2023-05-03T20:52:49.974Z,101523.61
2023-05-03T20:55:20.253Z,101525.93
2023-05-03T20:57:56.309Z,101522.39
2023-05-03T21:00:26.897Z,101529.17
2023-05-03T21:02:58.723Z,101524.83
2023-05-03T21:05:33.578Z,101513.55
2023-05-03T21:08:02.821Z,101515.14
2023-05-03T21:10:31.959Z,101518.44
2023-05-03T21:13:00.907Z,101520.81
2023-05-03T21:15:30.264Z,101523.30
2023-05-03T21:18:01.326Z,101516.25
2023-05-03T21:20:32.978Z,101517.83
2023-05-03T21:23:02.092Z,101513.46
2023-05-03T21:25:31.498Z,101518.64
2023-05-03T21:28:00.436Z,101514.27
2023-05-03T21:30:32.135Z,101515.11
2023-05-03T21:33:01.027Z,101510.76
2023-05-03T21:35:30.692Z,101510.67
2023-05-03T21:37:59.944Z,101510.59
2023-05-03T21:40:29.441Z,101509.64
2023-05-03T21:42:58.434Z,101510.42
2023-05-03T21:45:32.155Z,101510.24
2023-05-03T21:48:01.610Z,101512.74
2023-05-03T21:50:31.454Z,101513.55
2023-05-03T21:53:00.481Z,101510.84
2023-05-03T21:55:30.986Z,101509.86
2023-05-03T21:58:00.548Z,101503.70
2023-05-03T22:00:31.284Z,101513.10
2023-05-03T22:03:00.712Z,101508.70
2023-05-03T22:05:32.588Z,101511.13
2023-05-03T22:08:02.130Z,101509.34
2023-05-03T22:10:31.405Z,101512.73
2023-05-03T22:13:00.331Z,101509.13
2023-05-03T22:15:33.186Z,101513.32
2023-05-03T22:18:02.459Z,101509.69
2023-05-03T22:20:31.941Z,101512.94
2023-05-03T22:23:01.174Z,101513.55
2023-05-03T22:25:32.267Z,101517.63
2023-05-03T22:28:01.729Z,101509.67
2023-05-03T22:30:31.237Z,101516.47
2023-05-03T22:33:00.462Z,101514.61
2023-05-03T22:35:32.021Z,101516.14
2023-05-03T22:38:01.715Z,101515.97
2023-05-03T22:40:31.056Z,101510.66
2023-05-03T22:42:59.982Z,101521.72
2023-05-03T22:45:31.543Z,101518.20
2023-05-03T22:48:00.853Z,101522.38
2023-05-03T22:50:34.015Z,101515.31
2023-05-03T22:53:06.001Z,101515.17
2023-05-03T22:55:34.878Z,101521.06
2023-05-03T22:58:03.934Z,101519.23
2023-05-03T23:00:33.108Z,101518.19
2023-05-03T23:03:02.172Z,101514.64
2023-05-03T23:05:31.921Z,101524.08
2023-05-03T23:08:00.816Z,101514.56
2023-05-03T23:10:34.071Z,101518.91
2023-05-03T23:13:03.082Z,101514.64
2023-05-03T23:15:32.821Z,101518.05
2023-05-03T23:18:02.044Z,101520.63
2023-05-03T23:20:32.004Z,101518.83
2023-05-03T23:23:01.507Z,101515.25
2023-05-03T23:25:31.706Z,101517.76
2023-05-03T23:28:00.582Z,101518.47
2023-05-03T23:30:30.734Z,101515.03
2023-05-03T23:33:00.186Z,101510.69
2023-05-03T23:35:31.811Z,101513.20
2023-05-03T23:38:00.807Z,101520.87
2023-05-03T23:40:30.850Z,101510.32
2023-05-03T23:42:59.765Z,101506.80
2023-05-03T23:45:31.641Z,101507.63
2023-05-03T23:48:00.650Z,101502.42
2023-05-03T23:50:29.816Z,101510.88
2023-05-03T23:52:58.808Z,101497.90
2023-05-03T23:55:27.729Z,101497.75
2023-05-03T23:57:57.570Z,101506.24
